Bluff Dale, Texas
Current Conditions -  °F | °C
As of 6:35 PM on Thursday 27 Nov 2014 (Local Time) from KSEP Reporting Station
Clear Clear  
Wind Chill: 51°   Ceiling: Unl
Heat Index: 51°   Visibility: 10mi
Dew Point: 25°   Wind: 3mph
Humidity: 37%   Direction: 140°SE
Pressure: 30.4"   Gusts: NA
Location:  32.35°N, 98.02°W
Report Text: KSEP 280035Z AUTO 14003KT 10SM CLR 11/M04 A3040 RMK AO2 T01051038
Loading
Personal Weather Stations






























Interactive Weather Map New forecast layout! Learn more

10-Day Weather Forecast

Advertisements
Track Severe Weather on mobile